M I D A S
Marine Information and Data Acquisition System
Tripno 898 of the Zeeleeuw from 2005-05-11 08:13:35 to 2005-05-11 10:35:43
Back to CruiseResearch ActivitiesStationsMapUnderway DataData graphs

EquipmentUnitsComment
TimeDGPSUTC
LatitudeDGPSDM.mWGS84
LongitudeDGPSDM.mWGS84
HeadingGyrodeg 
SOGDGPSknotsSpeed over ground
COGDGPSdegCourse over ground
DepthEcho soundermeters200 kHz
Missing or incorrect values are displayed as -999
Navigation data collected by the RV Zeeleeuw from 2005-05-11 08:13:02 to 2005-05-11 10:35:43
Time Latitude Longitude Heading SOG COG Depth
2005-05-11 08:17:47 51°13.592 2°56.102 136.4 0.4 156 5.7
2005-05-11 08:18:47 51°13.567 2°56.131 143.3 3 146 5.7
2005-05-11 08:19:47 51°13.526 2°56.195 118.2 3.1 114 8
2005-05-11 08:20:47 51°13.534 2°56.262 65.3 1.3 48 7.4
2005-05-11 08:21:47 51°13.539 2°56.256 38.2 0.7 9 4.7
2005-05-11 08:22:47 51°13.536 2°56.243 9.5 1.4 354 4.9
2005-05-11 08:23:47 51°13.528 2°56.244 336.4 1.1 159 4.9
2005-05-11 08:24:52 51°13.54 2°56.217 297.4 2.5 294 7.9
2005-05-11 08:25:52 51°13.563 2°56.132 301.6 4.2 299 7.6
2005-05-11 08:26:52 51°13.603 2°56.027 306.5 5.2 304 7.8
2005-05-11 08:27:52 51°13.658 2°55.896 307.9 6.3 305 7.7
2005-05-11 08:28:52 51°13.723 2°55.758 311.8 6.7 310 10.7
2005-05-11 08:29:52 51°13.804 2°55.66 331.8 5.9 327 8.4
2005-05-11 08:30:52 51°13.898 2°55.591 343 6.6 339 8.4
2005-05-11 08:31:52 51°14.007 2°55.523 342.7 7.1 339 8.4
2005-05-11 08:32:52 51°14.111 2°55.454 338.2 6.5 334 8.3
2005-05-11 08:33:52 51°14.213 2°55.346 328.1 8.3 323 9.7
2005-05-11 08:34:51 51°14.314 2°55.182 312.2 9.7 309 8.7
2005-05-11 08:35:52 51°14.403 2°54.911 293.1 12.4 293 8.8
2005-05-11 08:36:52 51°14.447 2°54.562 292.2 13.9 285 9.1
2005-05-11 08:37:52 51°14.535 2°54.216 306.7 14 297 9.2
2005-05-11 08:38:52 51°14.667 2°53.916 312.5 13.8 304 9.3
2005-05-11 08:39:52 51°14.794 2°53.613 312.2 13.8 302 8.9
2005-05-11 08:40:52 51°14.884 2°53.353 301.9 9.9 290 9.4
2005-05-11 08:41:52 51°14.926 2°53.133 299.9 8.4 287 9.4
2005-05-11 08:42:52 51°14.948 2°52.916 279.8 8.4 269 9.5
2005-05-11 08:43:52 51°14.92 2°52.689 267 8.7 259 9.2
2005-05-11 08:44:52 51°14.897 2°52.459 272 8.9 261 9
2005-05-11 08:45:52 51°14.875 2°52.225 271.1 9 262 9.1
2005-05-11 08:46:52 51°14.852 2°51.991 271.3 9.1 260 9.3
2005-05-11 08:47:51 51°14.825 2°51.701 270 13 262 9.4
2005-05-11 08:48:52 51°14.765 2°51.349 254.6 14 248 9.7
2005-05-11 08:49:52 51°14.675 2°51.004 248.6 14 244 9.6
2005-05-11 08:50:51 51°14.565 2°50.688 246 14.1 241 9.6
2005-05-11 08:51:52 51°14.463 2°50.378 246.1 12.5 242 9.5
2005-05-11 08:52:51 51°14.37 2°50.094 247.2 12.2 243 9.4
2005-05-11 08:53:52 51°14.272 2°49.802 246.7 12.2 242 9.6
2005-05-11 08:54:52 51°14.174 2°49.516 246 12.2 242 9.6
2005-05-11 08:55:52 51°14.081 2°49.23 247.1 12.3 241 9.5
2005-05-11 08:56:51 51°13.981 2°48.955 244.3 12.4 240 9.6
2005-05-11 08:57:52 51°13.874 2°48.669 244.5 12.3 238 9.7
2005-05-11 08:58:52 51°13.79 2°48.409 263.6 8.6 251 10
2005-05-11 08:59:52 51°13.782 2°48.249 295.3 5.2 266 10.3
2005-05-11 09:00:51 51°13.768 2°48.179 326.7 2.6 225 10.2
2005-05-11 09:01:52 51°13.748 2°48.117 315.6 2.7 254 10.3
2005-05-11 09:02:51 51°13.771 2°48.048 3 2.1 304 10.3
2005-05-11 09:03:51 51°13.772 2°48.01 18.5 1.3 259 10.3
2005-05-11 09:04:51 51°13.766 2°47.975 24.7 1.3 247 10.3
2005-05-11 09:05:52 51°13.756 2°47.943 34.9 1.3 235 10.2
2005-05-11 09:06:51 51°13.744 2°47.914 44.2 1.4 232 10.3
2005-05-11 09:07:51 51°13.728 2°47.889 56 1.5 224 10.3
2005-05-11 09:08:52 51°13.709 2°47.865 64.1 1.5 216 10.3
2005-05-11 09:09:52 51°13.689 2°47.843 69.3 1.4 221 10.4
2005-05-11 09:10:52 51°13.694 2°47.846 38.1 2 21 10.3
2005-05-11 09:11:52 51°13.738 2°47.872 41.7 2.6 34 10.5
2005-05-11 09:12:52 51°13.768 2°47.929 54.7 2.8 45 10.5
2005-05-11 09:13:52 51°13.798 2°47.983 52.9 2.6 46 10.4
2005-05-11 09:14:51 51°13.824 2°48.036 57.1 2.5 53 10.4
2005-05-11 09:15:51 51°13.847 2°48.096 57.9 2.5 60 10.5
2005-05-11 09:16:52 51°13.87 2°48.157 58.5 2.7 61 10.4
2005-05-11 09:17:52 51°13.893 2°48.217 58.2 2.7 58 10.6
2005-05-11 09:18:51 51°13.911 2°48.277 63.1 2.6 66 10.6
2005-05-11 09:19:52 51°13.927 2°48.344 64.2 2.7 69 10.4
2005-05-11 09:20:51 51°13.944 2°48.409 64 2.7 66 10.6
2005-05-11 09:21:51 51°13.96 2°48.475 63.4 2.7 66 10.5
2005-05-11 09:22:52 51°13.976 2°48.541 63.1 2.5 64 10.5
2005-05-11 09:23:52 51°13.992 2°48.606 63.8 2.6 64 10.5
2005-05-11 09:24:52 51°14.007 2°48.671 63.6 2.7 70 10.6
2005-05-11 09:25:52 51°14.024 2°48.736 63.2 2.7 70 10.6
2005-05-11 09:26:52 51°14.04 2°48.803 63.8 2.7 66 10.8
2005-05-11 09:27:52 51°14.055 2°48.87 64.2 2.6 72 10.6
2005-05-11 09:28:51 51°14.071 2°48.933 62.8 2.7 67 10.6
2005-05-11 09:29:52 51°14.089 2°49.001 61.5 2.7 63 10.3
2005-05-11 09:30:52 51°14.106 2°49.066 62.9 2.7 65 10.5
2005-05-11 09:31:52 51°14.121 2°49.13 63.3 2.6 67 10.6
2005-05-11 09:32:52 51°14.137 2°49.195 63.9 2.6 71 10.5
2005-05-11 09:33:52 51°14.154 2°49.261 63.6 2.6 64 10.4
2005-05-11 09:34:52 51°14.169 2°49.327 64.4 2.7 66 10.4
2005-05-11 09:35:52 51°14.186 2°49.394 63.2 2.7 67 10.3
2005-05-11 09:36:52 51°14.204 2°49.461 62.9 2.8 65 10.4
2005-05-11 09:37:52 51°14.223 2°49.53 63.7 2.8 62 10.5
2005-05-11 09:38:52 51°14.24 2°49.599 63.5 2.8 68 10.4
2005-05-11 09:39:52 51°14.257 2°49.664 62.9 2.5 67 10.3
2005-05-11 09:40:52 51°14.271 2°49.722 62.7 2.2 61 10.4
2005-05-11 09:41:52 51°14.285 2°49.777 63.5 2.2 70 10.3
2005-05-11 09:42:52 51°14.296 2°49.831 63.1 2.2 69 10.3
2005-05-11 09:43:52 51°14.309 2°49.886 63.8 2.3 68 10.3
2005-05-11 09:44:52 51°14.321 2°49.94 62.4 2.2 64 10.1
2005-05-11 09:45:52 51°14.333 2°49.997 64.1 2.2 66 10
2005-05-11 09:46:51 51°14.343 2°50.051 63.8 2.2 75 10.1
2005-05-11 09:47:52 51°14.355 2°50.108 63.1 2.3 70 9.9
2005-05-11 09:48:52 51°14.369 2°50.165 62.9 2.4 74 10
2005-05-11 09:49:52 51°14.379 2°50.224 63.4 2.2 70 9.9
2005-05-11 09:50:51 51°14.391 2°50.278 62.1 2.2 71 10
2005-05-11 09:51:52 51°14.407 2°50.359 68.1 3.4 76 10.1
2005-05-11 09:52:52 51°14.415 2°50.447 75.2 3.1 80 9.8
2005-05-11 09:53:52 51°14.41 2°50.528 81.8 2.6 98 9.8
2005-05-11 09:54:51 51°14.404 2°50.57 72.3 1.2 114 9.5
2005-05-11 09:55:52 51°14.394 2°50.586 71.9 0.7 155 9.6
2005-05-11 09:56:52 51°14.382 2°50.584 72.7 0.9 202 9.5
2005-05-11 09:57:52 51°14.365 2°50.571 74.1 1.2 212 9.6
2005-05-11 09:58:52 51°14.348 2°50.553 74.6 1.3 214 9.6
2005-05-11 09:59:51 51°14.329 2°50.538 79.8 1.1 144 9.5
2005-05-11 10:00:52 51°14.329 2°50.616 75.4 4 79 9.4
2005-05-11 10:01:52 51°14.349 2°50.74 72.4 5.2 72 9.2
2005-05-11 10:02:52 51°14.365 2°50.881 79.1 5.5 81 9.1
2005-05-11 10:03:52 51°14.384 2°51.024 72.6 5.5 76 9.1
2005-05-11 10:04:52 51°14.409 2°51.165 72.2 5.5 73 9.1
2005-05-11 10:05:52 51°14.435 2°51.315 73.6 6.4 76 9.1
2005-05-11 10:06:52 51°14.466 2°51.488 72.7 7 75 9.1
2005-05-11 10:07:52 51°14.501 2°51.669 72.8 7.1 74 9.1
2005-05-11 10:08:52 51°14.534 2°51.85 73.1 7 71 9.2
2005-05-11 10:09:52 51°14.569 2°52.031 73.3 7.2 73 9.2
2005-05-11 10:10:52 51°14.605 2°52.213 73 7.3 72 9.2
2005-05-11 10:11:52 51°14.641 2°52.401 73.1 7.4 73 9.2
2005-05-11 10:12:52 51°14.669 2°52.594 80.6 7.6 81 9.2
2005-05-11 10:13:52 51°14.681 2°52.794 85.7 7.8 88 9.1
2005-05-11 10:14:52 51°14.685 2°53.001 86.2 7.7 89 8.9
2005-05-11 10:15:52 51°14.686 2°53.204 87 7.7 90 8.8
2005-05-11 10:16:52 51°14.662 2°53.413 96.2 7.9 97 8.9
2005-05-11 10:17:52 51°14.637 2°53.641 102.3 9.3 106 8.6
2005-05-11 10:18:52 51°14.592 2°53.884 103.7 9.6 104 10.1
2005-05-11 10:19:52 51°14.548 2°54.131 105.7 9.8 108 10.3
2005-05-11 10:20:52 51°14.51 2°54.379 99.5 9.6 100 10.2
2005-05-11 10:21:52 51°14.484 2°54.629 100.1 9.6 103 10.2
2005-05-11 10:22:52 51°14.429 2°54.87 119.4 9.8 118 10.1
2005-05-11 10:23:52 51°14.341 2°55.092 127.4 9.6 127 10.1
2005-05-11 10:24:52 51°14.252 2°55.279 134.5 7.9 133 10
2005-05-11 10:25:52 51°14.16 2°55.415 144.2 7.3 141 10.4
2005-05-11 10:26:51 51°14.049 2°55.51 162.3 8.9 165 9
2005-05-11 10:27:52 51°13.917 2°55.588 164.1 7.9 161 9.6
2005-05-11 10:28:53 51°13.805 2°55.66 156.3 6.9 153 -999
2005-05-11 10:29:53 51°13.72 2°55.762 139 5.7 136 -999
2005-05-11 10:30:54 51°13.668 2°55.867 128.7 4.7 125 -999
2005-05-11 10:31:53 51°13.628 2°55.967 118.8 4.3 114 -999
2005-05-11 10:32:53 51°13.607 2°56.064 114 2.7 107 -999
2005-05-11 10:33:53 51°13.595 2°56.1 124.5 0.7 131 -999